sensor_id;sensor_type;location;lat;lon;timestamp;temperature;humidity
6357;DHT22;3211;53.452;-2.264;2023-03-05T00:02:19;4.70;1.00
6357;DHT22;3211;53.452;-2.264;2023-03-05T00:04:46;4.80;1.00
6357;DHT22;3211;53.452;-2.264;2023-03-05T00:07:13;4.70;1.00
6357;DHT22;3211;53.452;-2.264;2023-03-05T00:09:40;4.70;1.00
6357;DHT22;3211;53.452;-2.264;2023-03-05T00:12:07;4.70;1.00
6357;DHT22;3211;53.452;-2.264;2023-03-05T00:14:34;4.70;1.00
6357;DHT22;3211;53.452;-2.264;2023-03-05T00:17:01;4.70;1.00
6357;DHT22;3211;53.452;-2.264;2023-03-05T00:19:29;4.70;1.00
6357;DHT22;3211;53.452;-2.264;2023-03-05T00:21:56;4.70;1.00
6357;DHT22;3211;53.452;-2.264;2023-03-05T00:24:23;4.70;1.00
6357;DHT22;3211;53.452;-2.264;2023-03-05T00:26:50;4.70;1.00
6357;DHT22;3211;53.452;-2.264;2023-03-05T00:29:18;4.70;1.00
6357;DHT22;3211;53.452;-2.264;2023-03-05T00:31:46;4.70;1.00
6357;DHT22;3211;53.452;-2.264;2023-03-05T00:34:15;4.70;1.00
6357;DHT22;3211;53.452;-2.264;2023-03-05T00:36:46;4.80;1.00
6357;DHT22;3211;53.452;-2.264;2023-03-05T00:39:14;4.80;1.00
6357;DHT22;3211;53.452;-2.264;2023-03-05T00:41:42;4.90;1.00
6357;DHT22;3211;53.452;-2.264;2023-03-05T00:44:09;4.70;1.00
6357;DHT22;3211;53.452;-2.264;2023-03-05T00:46:36;4.70;1.00
6357;DHT22;3211;53.452;-2.264;2023-03-05T00:49:04;4.70;1.00
6357;DHT22;3211;53.452;-2.264;2023-03-05T00:51:32;4.80;1.00
6357;DHT22;3211;53.452;-2.264;2023-03-05T00:54:00;4.80;1.00
6357;DHT22;3211;53.452;-2.264;2023-03-05T00:56:27;4.80;1.00
6357;DHT22;3211;53.452;-2.264;2023-03-05T00:58:54;4.70;1.00
6357;DHT22;3211;53.452;-2.264;2023-03-05T01:01:21;4.70;1.00
6357;DHT22;3211;53.452;-2.264;2023-03-05T01:03:48;4.70;1.00
6357;DHT22;3211;53.452;-2.264;2023-03-05T01:06:17;4.70;1.00
6357;DHT22;3211;53.452;-2.264;2023-03-05T01:08:44;4.70;1.00
6357;DHT22;3211;53.452;-2.264;2023-03-05T01:11:13;4.80;1.00
6357;DHT22;3211;53.452;-2.264;2023-03-05T01:13:40;4.80;1.00
6357;DHT22;3211;53.452;-2.264;2023-03-05T01:16:07;4.80;1.00
6357;DHT22;3211;53.452;-2.264;2023-03-05T01:18:34;4.70;1.00
6357;DHT22;3211;53.452;-2.264;2023-03-05T01:21:03;4.60;1.00
6357;DHT22;3211;53.452;-2.264;2023-03-05T01:23:30;4.60;1.00
6357;DHT22;3211;53.452;-2.264;2023-03-05T01:25:59;4.70;1.00
6357;DHT22;3211;53.452;-2.264;2023-03-05T01:28:27;4.60;1.00
6357;DHT22;3211;53.452;-2.264;2023-03-05T01:30:54;4.70;1.00
6357;DHT22;3211;53.452;-2.264;2023-03-05T01:33:22;4.70;1.00
6357;DHT22;3211;53.452;-2.264;2023-03-05T01:35:49;4.70;1.00
6357;DHT22;3211;53.452;-2.264;2023-03-05T01:38:16;4.70;1.00
6357;DHT22;3211;53.452;-2.264;2023-03-05T01:40:43;4.70;1.00
6357;DHT22;3211;53.452;-2.264;2023-03-05T01:43:24;4.70;1.00
6357;DHT22;3211;53.452;-2.264;2023-03-05T01:49:05;4.90;1.00
6357;DHT22;3211;53.452;-2.264;2023-03-05T01:51:37;4.80;1.00
6357;DHT22;3211;53.452;-2.264;2023-03-05T01:54:06;4.70;1.00
6357;DHT22;3211;53.452;-2.264;2023-03-05T01:56:35;4.70;1.00
6357;DHT22;3211;53.452;-2.264;2023-03-05T01:59:22;4.60;1.00
6357;DHT22;3211;53.452;-2.264;2023-03-05T02:02:09;4.60;1.00
6357;DHT22;3211;53.452;-2.264;2023-03-05T02:04:42;4.60;1.00
6357;DHT22;3211;53.452;-2.264;2023-03-05T02:07:11;4.60;1.00
6357;DHT22;3211;53.452;-2.264;2023-03-05T02:09:40;4.60;1.00
6357;DHT22;3211;53.452;-2.264;2023-03-05T02:12:08;4.60;1.00
6357;DHT22;3211;53.452;-2.264;2023-03-05T02:14:36;4.60;1.00
6357;DHT22;3211;53.452;-2.264;2023-03-05T02:17:03;4.70;1.00
6357;DHT22;3211;53.452;-2.264;2023-03-05T02:19:48;4.60;1.00
6357;DHT22;3211;53.452;-2.264;2023-03-05T02:22:18;4.70;1.00
6357;DHT22;3211;53.452;-2.264;2023-03-05T02:24:45;4.60;1.00
6357;DHT22;3211;53.452;-2.264;2023-03-05T02:27:13;4.60;1.00
6357;DHT22;3211;53.452;-2.264;2023-03-05T02:29:42;4.60;1.00
6357;DHT22;3211;53.452;-2.264;2023-03-05T02:32:11;4.60;1.00
6357;DHT22;3211;53.452;-2.264;2023-03-05T02:34:38;4.50;1.00
6357;DHT22;3211;53.452;-2.264;2023-03-05T02:37:05;4.50;1.00
6357;DHT22;3211;53.452;-2.264;2023-03-05T02:39:35;4.50;1.00
6357;DHT22;3211;53.452;-2.264;2023-03-05T02:42:03;4.50;1.00
6357;DHT22;3211;53.452;-2.264;2023-03-05T02:44:30;4.50;1.00
6357;DHT22;3211;53.452;-2.264;2023-03-05T02:46:57;4.50;1.00
6357;DHT22;3211;53.452;-2.264;2023-03-05T02:49:23;4.50;1.00
6357;DHT22;3211;53.452;-2.264;2023-03-05T02:51:50;4.50;1.00
6357;DHT22;3211;53.452;-2.264;2023-03-05T02:54:17;4.40;1.00
6357;DHT22;3211;53.452;-2.264;2023-03-05T02:56:46;4.40;1.00
6357;DHT22;3211;53.452;-2.264;2023-03-05T02:59:12;4.50;1.00
6357;DHT22;3211;53.452;-2.264;2023-03-05T03:01:39;4.40;1.00
6357;DHT22;3211;53.452;-2.264;2023-03-05T03:04:06;4.40;1.00
6357;DHT22;3211;53.452;-2.264;2023-03-05T03:06:33;4.40;1.00
6357;DHT22;3211;53.452;-2.264;2023-03-05T03:09:00;4.40;1.00
6357;DHT22;3211;53.452;-2.264;2023-03-05T03:11:27;4.40;1.00
6357;DHT22;3211;53.452;-2.264;2023-03-05T03:13:55;4.20;1.00
6357;DHT22;3211;53.452;-2.264;2023-03-05T03:16:22;4.30;1.00
6357;DHT22;3211;53.452;-2.264;2023-03-05T03:18:49;4.40;1.00
6357;DHT22;3211;53.452;-2.264;2023-03-05T03:21:17;4.30;1.00
6357;DHT22;3211;53.452;-2.264;2023-03-05T03:23:45;4.40;1.00
6357;DHT22;3211;53.452;-2.264;2023-03-05T03:26:12;4.40;1.00
6357;DHT22;3211;53.452;-2.264;2023-03-05T03:28:38;4.40;1.00
6357;DHT22;3211;53.452;-2.264;2023-03-05T03:31:07;4.50;1.00
6357;DHT22;3211;53.452;-2.264;2023-03-05T03:33:34;4.40;1.00
6357;DHT22;3211;53.452;-2.264;2023-03-05T03:36:02;4.50;1.00
6357;DHT22;3211;53.452;-2.264;2023-03-05T03:38:29;4.50;1.00
6357;DHT22;3211;53.452;-2.264;2023-03-05T03:40:56;4.60;1.00
6357;DHT22;3211;53.452;-2.264;2023-03-05T03:43:23;4.50;1.00
6357;DHT22;3211;53.452;-2.264;2023-03-05T03:45:50;4.40;1.00
6357;DHT22;3211;53.452;-2.264;2023-03-05T03:48:19;4.40;1.00
6357;DHT22;3211;53.452;-2.264;2023-03-05T03:50:45;4.50;1.00
6357;DHT22;3211;53.452;-2.264;2023-03-05T03:53:12;4.50;1.00
6357;DHT22;3211;53.452;-2.264;2023-03-05T03:55:41;4.60;1.00
6357;DHT22;3211;53.452;-2.264;2023-03-05T03:58:08;4.40;1.00
6357;DHT22;3211;53.452;-2.264;2023-03-05T04:00:35;4.40;1.00
6357;DHT22;3211;53.452;-2.264;2023-03-05T04:03:02;4.40;1.00
6357;DHT22;3211;53.452;-2.264;2023-03-05T04:05:30;4.30;1.00
6357;DHT22;3211;53.452;-2.264;2023-03-05T04:07:57;4.30;1.00
6357;DHT22;3211;53.452;-2.264;2023-03-05T04:10:26;4.20;1.00
6357;DHT22;3211;53.452;-2.264;2023-03-05T04:12:53;4.30;1.00
6357;DHT22;3211;53.452;-2.264;2023-03-05T04:15:20;4.20;1.00
6357;DHT22;3211;53.452;-2.264;2023-03-05T04:17:47;4.20;1.00
6357;DHT22;3211;53.452;-2.264;2023-03-05T04:20:14;4.20;1.00
6357;DHT22;3211;53.452;-2.264;2023-03-05T04:22:42;4.20;1.00
6357;DHT22;3211;53.452;-2.264;2023-03-05T04:25:09;4.20;1.00
6357;DHT22;3211;53.452;-2.264;2023-03-05T04:27:36;4.10;1.00
6357;DHT22;3211;53.452;-2.264;2023-03-05T04:30:06;4.10;1.00
6357;DHT22;3211;53.452;-2.264;2023-03-05T04:32:33;4.20;1.00
6357;DHT22;3211;53.452;-2.264;2023-03-05T04:35:00;4.40;1.00
6357;DHT22;3211;53.452;-2.264;2023-03-05T04:37:27;4.30;1.00
6357;DHT22;3211;53.452;-2.264;2023-03-05T04:39:55;4.30;1.00
6357;DHT22;3211;53.452;-2.264;2023-03-05T04:42:22;4.10;1.00
6357;DHT22;3211;53.452;-2.264;2023-03-05T04:44:50;4.20;1.00
6357;DHT22;3211;53.452;-2.264;2023-03-05T04:47:17;4.10;1.00
6357;DHT22;3211;53.452;-2.264;2023-03-05T04:49:45;4.20;1.00
6357;DHT22;3211;53.452;-2.264;2023-03-05T04:52:12;4.10;1.00
6357;DHT22;3211;53.452;-2.264;2023-03-05T04:54:40;4.20;1.00
6357;DHT22;3211;53.452;-2.264;2023-03-05T04:57:08;4.20;1.00
6357;DHT22;3211;53.452;-2.264;2023-03-05T04:59:36;4.10;1.00
6357;DHT22;3211;53.452;-2.264;2023-03-05T05:02:03;4.10;1.00
6357;DHT22;3211;53.452;-2.264;2023-03-05T05:04:30;4.10;1.00
6357;DHT22;3211;53.452;-2.264;2023-03-05T05:06:57;4.20;1.00
6357;DHT22;3211;53.452;-2.264;2023-03-05T05:09:25;4.10;1.00
6357;DHT22;3211;53.452;-2.264;2023-03-05T05:11:52;4.10;1.00
6357;DHT22;3211;53.452;-2.264;2023-03-05T05:14:20;4.00;1.00
6357;DHT22;3211;53.452;-2.264;2023-03-05T05:16:47;3.90;1.00
6357;DHT22;3211;53.452;-2.264;2023-03-05T05:19:14;3.80;1.00
6357;DHT22;3211;53.452;-2.264;2023-03-05T05:21:41;3.90;1.00
6357;DHT22;3211;53.452;-2.264;2023-03-05T05:24:08;3.80;1.00
6357;DHT22;3211;53.452;-2.264;2023-03-05T05:26:35;3.90;1.00
6357;DHT22;3211;53.452;-2.264;2023-03-05T05:29:02;3.90;1.00
6357;DHT22;3211;53.452;-2.264;2023-03-05T05:31:31;3.90;1.00
6357;DHT22;3211;53.452;-2.264;2023-03-05T05:33:57;3.80;1.00
6357;DHT22;3211;53.452;-2.264;2023-03-05T05:36:24;3.90;1.00
6357;DHT22;3211;53.452;-2.264;2023-03-05T05:38:51;3.90;1.00
6357;DHT22;3211;53.452;-2.264;2023-03-05T05:41:19;4.00;1.00
6357;DHT22;3211;53.452;-2.264;2023-03-05T05:43:47;4.00;1.00
6357;DHT22;3211;53.452;-2.264;2023-03-05T05:46:16;4.10;1.00
6357;DHT22;3211;53.452;-2.264;2023-03-05T05:48:45;4.00;1.00
6357;DHT22;3211;53.452;-2.264;2023-03-05T05:51:14;4.00;1.00
6357;DHT22;3211;53.452;-2.264;2023-03-05T05:53:42;4.10;1.00
6357;DHT22;3211;53.452;-2.264;2023-03-05T05:56:11;4.10;1.00
6357;DHT22;3211;53.452;-2.264;2023-03-05T05:58:39;3.90;1.00
6357;DHT22;3211;53.452;-2.264;2023-03-05T06:01:14;3.90;1.00
6357;DHT22;3211;53.452;-2.264;2023-03-05T06:03:42;3.90;1.00
6357;DHT22;3211;53.452;-2.264;2023-03-05T06:06:12;4.00;1.00
6357;DHT22;3211;53.452;-2.264;2023-03-05T06:08:39;4.00;1.00
6357;DHT22;3211;53.452;-2.264;2023-03-05T06:11:06;4.10;1.00
6357;DHT22;3211;53.452;-2.264;2023-03-05T06:13:34;4.00;1.00
6357;DHT22;3211;53.452;-2.264;2023-03-05T06:16:04;4.00;1.00
6357;DHT22;3211;53.452;-2.264;2023-03-05T06:18:32;4.00;1.00
6357;DHT22;3211;53.452;-2.264;2023-03-05T06:21:00;3.90;1.00
6357;DHT22;3211;53.452;-2.264;2023-03-05T06:23:29;4.00;1.00
6357;DHT22;3211;53.452;-2.264;2023-03-05T06:25:58;3.90;1.00
6357;DHT22;3211;53.452;-2.264;2023-03-05T06:28:26;4.00;1.00
6357;DHT22;3211;53.452;-2.264;2023-03-05T06:30:59;4.00;1.00
6357;DHT22;3211;53.452;-2.264;2023-03-05T06:33:26;4.10;1.00
6357;DHT22;3211;53.452;-2.264;2023-03-05T06:35:53;4.10;1.00
6357;DHT22;3211;53.452;-2.264;2023-03-05T06:38:20;4.10;1.00
6357;DHT22;3211;53.452;-2.264;2023-03-05T06:40:48;4.10;1.00
6357;DHT22;3211;53.452;-2.264;2023-03-05T06:43:15;4.10;1.00
6357;DHT22;3211;53.452;-2.264;2023-03-05T06:45:42;4.20;1.00
6357;DHT22;3211;53.452;-2.264;2023-03-05T06:48:09;4.10;1.00
6357;DHT22;3211;53.452;-2.264;2023-03-05T06:50:37;4.10;1.00
6357;DHT22;3211;53.452;-2.264;2023-03-05T06:53:04;4.20;1.00
6357;DHT22;3211;53.452;-2.264;2023-03-05T06:55:31;4.10;1.00
6357;DHT22;3211;53.452;-2.264;2023-03-05T06:58:06;4.00;1.00
6357;DHT22;3211;53.452;-2.264;2023-03-05T07:00:33;4.10;1.00
6357;DHT22;3211;53.452;-2.264;2023-03-05T07:03:00;4.00;1.00
6357;DHT22;3211;53.452;-2.264;2023-03-05T07:05:27;3.80;1.00
6357;DHT22;3211;53.452;-2.264;2023-03-05T07:07:54;3.80;1.00
6357;DHT22;3211;53.452;-2.264;2023-03-05T07:10:21;3.90;4.50
6357;DHT22;3211;53.452;-2.264;2023-03-05T07:12:48;3.90;5.40
6357;DHT22;3211;53.452;-2.264;2023-03-05T07:15:16;3.90;5.70
6357;DHT22;3211;53.452;-2.264;2023-03-05T07:17:43;3.80;7.00
6357;DHT22;3211;53.452;-2.264;2023-03-05T07:20:11;3.90;10.20
6357;DHT22;3211;53.452;-2.264;2023-03-05T07:22:38;3.90;14.40
6357;DHT22;3211;53.452;-2.264;2023-03-05T07:25:06;3.90;15.20
6357;DHT22;3211;53.452;-2.264;2023-03-05T07:27:34;3.90;16.30
6357;DHT22;3211;53.452;-2.264;2023-03-05T07:30:01;3.80;15.50
6357;DHT22;3211;53.452;-2.264;2023-03-05T07:32:30;3.90;16.30
6357;DHT22;3211;53.452;-2.264;2023-03-05T07:34:58;3.90;17.80
6357;DHT22;3211;53.452;-2.264;2023-03-05T07:37:25;3.90;20.70
6357;DHT22;3211;53.452;-2.264;2023-03-05T07:39:52;3.90;18.90
6357;DHT22;3211;53.452;-2.264;2023-03-05T07:42:19;4.00;19.60
6357;DHT22;3211;53.452;-2.264;2023-03-05T07:44:45;4.00;20.90
6357;DHT22;3211;53.452;-2.264;2023-03-05T07:47:13;4.00;18.70
6357;DHT22;3211;53.452;-2.264;2023-03-05T07:49:41;4.00;19.80
6357;DHT22;3211;53.452;-2.264;2023-03-05T07:52:08;3.90;20.20
6357;DHT22;3211;53.452;-2.264;2023-03-05T07:54:37;3.90;22.00
6357;DHT22;3211;53.452;-2.264;2023-03-05T07:57:05;3.90;23.10
6357;DHT22;3211;53.452;-2.264;2023-03-05T07:59:32;3.90;22.50
6357;DHT22;3211;53.452;-2.264;2023-03-05T08:01:59;3.90;21.80
6357;DHT22;3211;53.452;-2.264;2023-03-05T08:04:26;3.90;20.30
6357;DHT22;3211;53.452;-2.264;2023-03-05T08:06:57;3.70;19.20
6357;DHT22;3211;53.452;-2.264;2023-03-05T08:09:25;3.80;20.30
6357;DHT22;3211;53.452;-2.264;2023-03-05T08:11:53;3.80;19.10
6357;DHT22;3211;53.452;-2.264;2023-03-05T08:14:20;3.90;22.90
6357;DHT22;3211;53.452;-2.264;2023-03-05T08:16:47;4.00;22.10
6357;DHT22;3211;53.452;-2.264;2023-03-05T08:19:17;3.90;19.00
6357;DHT22;3211;53.452;-2.264;2023-03-05T08:21:44;3.70;21.20
6357;DHT22;3211;53.452;-2.264;2023-03-05T08:24:13;3.80;22.60
6357;DHT22;3211;53.452;-2.264;2023-03-05T08:26:41;4.00;22.30
6357;DHT22;3211;53.452;-2.264;2023-03-05T08:29:09;4.00;20.80
6357;DHT22;3211;53.452;-2.264;2023-03-05T08:31:37;4.00;18.50
6357;DHT22;3211;53.452;-2.264;2023-03-05T08:34:04;3.80;18.30
6357;DHT22;3211;53.452;-2.264;2023-03-05T08:36:31;4.00;21.80
6357;DHT22;3211;53.452;-2.264;2023-03-05T08:38:58;4.00;21.10
6357;DHT22;3211;53.452;-2.264;2023-03-05T08:41:27;4.00;17.30
6357;DHT22;3211;53.452;-2.264;2023-03-05T08:43:54;4.00;20.50
6357;DHT22;3211;53.452;-2.264;2023-03-05T08:46:21;4.00;20.70
6357;DHT22;3211;53.452;-2.264;2023-03-05T08:48:48;4.10;19.90
6357;DHT22;3211;53.452;-2.264;2023-03-05T08:51:17;4.10;20.20
6357;DHT22;3211;53.452;-2.264;2023-03-05T08:53:45;4.10;23.60
6357;DHT22;3211;53.452;-2.264;2023-03-05T08:56:12;4.20;24.90
6357;DHT22;3211;53.452;-2.264;2023-03-05T08:58:41;4.30;26.30
6357;DHT22;3211;53.452;-2.264;2023-03-05T09:01:09;4.30;20.60
6357;DHT22;3211;53.452;-2.264;2023-03-05T09:03:36;4.30;20.10
6357;DHT22;3211;53.452;-2.264;2023-03-05T09:06:06;4.40;21.00
6357;DHT22;3211;53.452;-2.264;2023-03-05T09:08:34;4.40;16.10
6357;DHT22;3211;53.452;-2.264;2023-03-05T09:11:02;4.40;17.20
6357;DHT22;3211;53.452;-2.264;2023-03-05T09:13:29;4.30;16.20
6357;DHT22;3211;53.452;-2.264;2023-03-05T09:15:59;4.40;20.10
6357;DHT22;3211;53.452;-2.264;2023-03-05T09:18:26;4.40;18.40
6357;DHT22;3211;53.452;-2.264;2023-03-05T09:20:54;4.50;19.30
6357;DHT22;3211;53.452;-2.264;2023-03-05T09:23:21;4.60;18.50
6357;DHT22;3211;53.452;-2.264;2023-03-05T09:25:50;4.60;19.00
6357;DHT22;3211;53.452;-2.264;2023-03-05T09:28:17;4.70;17.10
6357;DHT22;3211;53.452;-2.264;2023-03-05T09:30:44;4.80;18.20
6357;DHT22;3211;53.452;-2.264;2023-03-05T09:33:12;4.80;13.90
6357;DHT22;3211;53.452;-2.264;2023-03-05T09:35:39;4.80;13.80
6357;DHT22;3211;53.452;-2.264;2023-03-05T09:38:06;4.80;14.60
6357;DHT22;3211;53.452;-2.264;2023-03-05T09:40:41;5.00;16.40
6357;DHT22;3211;53.452;-2.264;2023-03-05T09:43:17;5.10;17.90
6357;DHT22;3211;53.452;-2.264;2023-03-05T09:45:57;5.20;15.00
6357;DHT22;3211;53.452;-2.264;2023-03-05T09:48:38;5.00;12.80
6357;DHT22;3211;53.452;-2.264;2023-03-05T09:51:12;5.10;15.90
6357;DHT22;3211;53.452;-2.264;2023-03-05T09:53:44;5.30;16.00
6357;DHT22;3211;53.452;-2.264;2023-03-05T09:56:15;5.10;13.00
6357;DHT22;3211;53.452;-2.264;2023-03-05T09:58:44;5.00;12.20
6357;DHT22;3211;53.452;-2.264;2023-03-05T10:01:15;5.00;9.90
6357;DHT22;3211;53.452;-2.264;2023-03-05T10:03:52;5.00;11.90
6357;DHT22;3211;53.452;-2.264;2023-03-05T10:06:23;5.10;11.70
6357;DHT22;3211;53.452;-2.264;2023-03-05T10:08:55;5.10;7.90
6357;DHT22;3211;53.452;-2.264;2023-03-05T10:11:42;5.10;7.20
6357;DHT22;3211;53.452;-2.264;2023-03-05T10:14:18;5.40;9.00
6357;DHT22;3211;53.452;-2.264;2023-03-05T10:20:19;5.70;7.20
6357;DHT22;3211;53.452;-2.264;2023-03-05T10:23:01;5.70;1.00
6357;DHT22;3211;53.452;-2.264;2023-03-05T10:25:44;5.80;1.00
6357;DHT22;3211;53.452;-2.264;2023-03-05T10:28:15;5.80;1.00
6357;DHT22;3211;53.452;-2.264;2023-03-05T10:30:55;5.60;1.00
6357;DHT22;3211;53.452;-2.264;2023-03-05T10:33:32;5.90;1.00
6357;DHT22;3211;53.452;-2.264;2023-03-05T10:36:20;5.90;1.00
6357;DHT22;3211;53.452;-2.264;2023-03-05T10:41:49;6.20;1.00
6357;DHT22;3211;53.452;-2.264;2023-03-05T10:44:25;6.10;1.00
6357;DHT22;3211;53.452;-2.264;2023-03-05T10:46:58;6.10;1.00
6357;DHT22;3211;53.452;-2.264;2023-03-05T10:49:29;6.00;1.00
6357;DHT22;3211;53.452;-2.264;2023-03-05T10:52:03;6.10;1.00
6357;DHT22;3211;53.452;-2.264;2023-03-05T10:54:34;6.20;1.00
6357;DHT22;3211;53.452;-2.264;2023-03-05T10:57:17;6.30;1.00
6357;DHT22;3211;53.452;-2.264;2023-03-05T10:59:47;6.20;1.00
6357;DHT22;3211;53.452;-2.264;2023-03-05T11:02:14;6.40;1.00
6357;DHT22;3211;53.452;-2.264;2023-03-05T11:04:41;6.70;1.00
6357;DHT22;3211;53.452;-2.264;2023-03-05T11:07:31;7.10;1.00
6357;DHT22;3211;53.452;-2.264;2023-03-05T11:10:15;7.10;1.00
6357;DHT22;3211;53.452;-2.264;2023-03-05T11:12:43;7.20;1.00
6357;DHT22;3211;53.452;-2.264;2023-03-05T11:15:23;6.80;1.00
6357;DHT22;3211;53.452;-2.264;2023-03-05T11:18:10;7.10;1.00
6357;DHT22;3211;53.452;-2.264;2023-03-05T11:20:41;7.40;1.00
6357;DHT22;3211;53.452;-2.264;2023-03-05T11:23:12;7.70;1.00
6357;DHT22;3211;53.452;-2.264;2023-03-05T11:25:58;7.70;1.00
6357;DHT22;3211;53.452;-2.264;2023-03-05T11:28:28;8.10;1.00
6357;DHT22;3211;53.452;-2.264;2023-03-05T11:31:02;8.10;1.00
6357;DHT22;3211;53.452;-2.264;2023-03-05T11:33:33;8.40;1.00
6357;DHT22;3211;53.452;-2.264;2023-03-05T11:36:22;8.50;1.00
6357;DHT22;3211;53.452;-2.264;2023-03-05T11:38:53;8.50;1.00
6357;DHT22;3211;53.452;-2.264;2023-03-05T11:41:28;8.40;1.00
6357;DHT22;3211;53.452;-2.264;2023-03-05T11:43:57;8.50;1.00
6357;DHT22;3211;53.452;-2.264;2023-03-05T11:46:29;8.80;1.00
6357;DHT22;3211;53.452;-2.264;2023-03-05T11:49:01;8.60;1.00
6357;DHT22;3211;53.452;-2.264;2023-03-05T11:51:33;8.50;1.00
6357;DHT22;3211;53.452;-2.264;2023-03-05T11:54:07;8.40;1.00
6357;DHT22;3211;53.452;-2.264;2023-03-05T11:56:35;8.10;1.00
6357;DHT22;3211;53.452;-2.264;2023-03-05T11:59:10;8.20;1.00
6357;DHT22;3211;53.452;-2.264;2023-03-05T12:01:41;8.10;1.00
6357;DHT22;3211;53.452;-2.264;2023-03-05T12:04:09;8.40;1.00
6357;DHT22;3211;53.452;-2.264;2023-03-05T12:06:38;8.20;1.00
6357;DHT22;3211;53.452;-2.264;2023-03-05T12:09:12;8.20;1.00
6357;DHT22;3211;53.452;-2.264;2023-03-05T12:11:41;7.90;1.00
6357;DHT22;3211;53.452;-2.264;2023-03-05T12:14:14;8.00;1.00
6357;DHT22;3211;53.452;-2.264;2023-03-05T12:16:46;8.00;1.00
6357;DHT22;3211;53.452;-2.264;2023-03-05T12:19:27;7.80;1.00
6357;DHT22;3211;53.452;-2.264;2023-03-05T12:21:58;7.50;1.00
6357;DHT22;3211;53.452;-2.264;2023-03-05T12:24:36;7.60;1.00
6357;DHT22;3211;53.452;-2.264;2023-03-05T12:27:11;7.70;1.00
6357;DHT22;3211;53.452;-2.264;2023-03-05T12:29:42;7.50;1.00
6357;DHT22;3211;53.452;-2.264;2023-03-05T12:35:35;7.70;1.00
6357;DHT22;3211;53.452;-2.264;2023-03-05T12:40:50;7.80;1.00
6357;DHT22;3211;53.452;-2.264;2023-03-05T12:43:28;7.80;1.00
6357;DHT22;3211;53.452;-2.264;2023-03-05T12:46:21;7.80;1.00
6357;DHT22;3211;53.452;-2.264;2023-03-05T12:48:50;7.90;1.00
6357;DHT22;3211;53.452;-2.264;2023-03-05T12:51:32;7.80;1.00
6357;DHT22;3211;53.452;-2.264;2023-03-05T12:54:24;7.60;1.00
6357;DHT22;3211;53.452;-2.264;2023-03-05T12:56:55;7.30;1.00
6357;DHT22;3211;53.452;-2.264;2023-03-05T12:59:27;7.50;1.00
6357;DHT22;3211;53.452;-2.264;2023-03-05T13:01:57;7.20;1.00
6357;DHT22;3211;53.452;-2.264;2023-03-05T13:04:28;7.30;1.00
6357;DHT22;3211;53.452;-2.264;2023-03-05T13:07:00;7.40;1.00
6357;DHT22;3211;53.452;-2.264;2023-03-05T13:09:30;7.60;1.00
6357;DHT22;3211;53.452;-2.264;2023-03-05T13:12:02;7.50;1.00
6357;DHT22;3211;53.452;-2.264;2023-03-05T13:14:41;7.60;1.00
6357;DHT22;3211;53.452;-2.264;2023-03-05T13:17:27;7.90;1.00
6357;DHT22;3211;53.452;-2.264;2023-03-05T13:19:55;8.00;1.00
6357;DHT22;3211;53.452;-2.264;2023-03-05T13:22:22;8.00;1.00
6357;DHT22;3211;53.452;-2.264;2023-03-05T13:25:08;8.10;1.00
6357;DHT22;3211;53.452;-2.264;2023-03-05T13:27:37;8.00;1.00
6357;DHT22;3211;53.452;-2.264;2023-03-05T13:30:13;8.10;1.00
6357;DHT22;3211;53.452;-2.264;2023-03-05T13:32:49;8.00;1.00
6357;DHT22;3211;53.452;-2.264;2023-03-05T13:35:17;8.00;1.00
6357;DHT22;3211;53.452;-2.264;2023-03-05T13:37:45;8.00;1.00
6357;DHT22;3211;53.452;-2.264;2023-03-05T13:40:18;8.10;1.00
6357;DHT22;3211;53.452;-2.264;2023-03-05T13:42:48;8.00;1.00
6357;DHT22;3211;53.452;-2.264;2023-03-05T13:45:24;8.10;1.00
6357;DHT22;3211;53.452;-2.264;2023-03-05T13:47:54;8.20;1.00
6357;DHT22;3211;53.452;-2.264;2023-03-05T13:50:27;8.00;1.00
6357;DHT22;3211;53.452;-2.264;2023-03-05T13:52:54;7.70;1.00
6357;DHT22;3211;53.452;-2.264;2023-03-05T13:55:22;7.70;1.00
6357;DHT22;3211;53.452;-2.264;2023-03-05T13:57:51;7.60;1.00
6357;DHT22;3211;53.452;-2.264;2023-03-05T14:00:27;7.60;1.00
6357;DHT22;3211;53.452;-2.264;2023-03-05T14:02:56;7.70;1.00
6357;DHT22;3211;53.452;-2.264;2023-03-05T14:05:23;7.70;1.00
6357;DHT22;3211;53.452;-2.264;2023-03-05T14:07:51;7.70;1.00
6357;DHT22;3211;53.452;-2.264;2023-03-05T14:10:30;7.80;1.00
6357;DHT22;3211;53.452;-2.264;2023-03-05T14:13:02;7.70;1.00
6357;DHT22;3211;53.452;-2.264;2023-03-05T14:15:31;7.70;1.00
6357;DHT22;3211;53.452;-2.264;2023-03-05T14:18:22;7.60;1.00
6357;DHT22;3211;53.452;-2.264;2023-03-05T14:21:11;7.60;1.00
6357;DHT22;3211;53.452;-2.264;2023-03-05T14:23:40;7.80;1.00
6357;DHT22;3211;53.452;-2.264;2023-03-05T14:26:26;8.00;1.00
6357;DHT22;3211;53.452;-2.264;2023-03-05T14:28:57;8.20;1.00
6357;DHT22;3211;53.452;-2.264;2023-03-05T14:31:27;8.20;1.00
6357;DHT22;3211;53.452;-2.264;2023-03-05T14:33:59;8.10;1.00
6357;DHT22;3211;53.452;-2.264;2023-03-05T14:36:28;8.10;1.00
6357;DHT22;3211;53.452;-2.264;2023-03-05T14:38:56;8.30;1.00
6357;DHT22;3211;53.452;-2.264;2023-03-05T14:41:36;8.20;1.00
6357;DHT22;3211;53.452;-2.264;2023-03-05T14:44:11;8.10;1.00
6357;DHT22;3211;53.452;-2.264;2023-03-05T14:46:38;8.20;1.00
6357;DHT22;3211;53.452;-2.264;2023-03-05T14:49:05;8.40;1.00
6357;DHT22;3211;53.452;-2.264;2023-03-05T14:51:36;8.40;1.00
6357;DHT22;3211;53.452;-2.264;2023-03-05T14:54:03;8.50;1.00
6357;DHT22;3211;53.452;-2.264;2023-03-05T14:56:31;8.50;1.00
6357;DHT22;3211;53.452;-2.264;2023-03-05T14:58:58;8.50;1.00
6357;DHT22;3211;53.452;-2.264;2023-03-05T15:01:26;8.40;1.00
6357;DHT22;3211;53.452;-2.264;2023-03-05T15:03:53;8.50;1.00
6357;DHT22;3211;53.452;-2.264;2023-03-05T15:06:26;8.60;1.00
6357;DHT22;3211;53.452;-2.264;2023-03-05T15:08:56;8.40;1.00
6357;DHT22;3211;53.452;-2.264;2023-03-05T15:11:23;8.50;1.00
6357;DHT22;3211;53.452;-2.264;2023-03-05T15:13:50;8.20;1.00
6357;DHT22;3211;53.452;-2.264;2023-03-05T15:16:17;8.40;1.00
6357;DHT22;3211;53.452;-2.264;2023-03-05T15:18:46;8.40;1.00
6357;DHT22;3211;53.452;-2.264;2023-03-05T15:21:13;8.60;1.00
6357;DHT22;3211;53.452;-2.264;2023-03-05T15:23:40;8.80;1.00
6357;DHT22;3211;53.452;-2.264;2023-03-05T15:26:12;8.70;1.00
6357;DHT22;3211;53.452;-2.264;2023-03-05T15:28:40;8.70;1.00
6357;DHT22;3211;53.452;-2.264;2023-03-05T15:31:07;8.40;1.00
6357;DHT22;3211;53.452;-2.264;2023-03-05T15:33:34;8.40;1.00
6357;DHT22;3211;53.452;-2.264;2023-03-05T15:36:03;8.30;1.00
6357;DHT22;3211;53.452;-2.264;2023-03-05T15:38:30;8.30;1.00
6357;DHT22;3211;53.452;-2.264;2023-03-05T15:40:57;8.30;1.00
6357;DHT22;3211;53.452;-2.264;2023-03-05T15:43:24;8.30;1.00
6357;DHT22;3211;53.452;-2.264;2023-03-05T15:45:51;8.30;1.00
6357;DHT22;3211;53.452;-2.264;2023-03-05T15:48:18;8.30;1.00
6357;DHT22;3211;53.452;-2.264;2023-03-05T15:50:45;8.20;1.00
6357;DHT22;3211;53.452;-2.264;2023-03-05T15:53:14;8.10;1.00
6357;DHT22;3211;53.452;-2.264;2023-03-05T15:55:43;8.10;1.00
6357;DHT22;3211;53.452;-2.264;2023-03-05T15:58:13;8.00;1.00
6357;DHT22;3211;53.452;-2.264;2023-03-05T16:00:41;8.00;1.00
6357;DHT22;3211;53.452;-2.264;2023-03-05T16:03:09;7.90;1.00
6357;DHT22;3211;53.452;-2.264;2023-03-05T16:05:36;8.00;1.00
6357;DHT22;3211;53.452;-2.264;2023-03-05T16:08:04;7.90;1.00
6357;DHT22;3211;53.452;-2.264;2023-03-05T16:10:33;8.00;1.00
6357;DHT22;3211;53.452;-2.264;2023-03-05T16:13:03;8.00;1.00
6357;DHT22;3211;53.452;-2.264;2023-03-05T16:15:30;8.10;1.00
6357;DHT22;3211;53.452;-2.264;2023-03-05T16:18:00;8.00;1.00
6357;DHT22;3211;53.452;-2.264;2023-03-05T16:20:28;7.90;1.00
6357;DHT22;3211;53.452;-2.264;2023-03-05T16:22:55;8.00;1.00
6357;DHT22;3211;53.452;-2.264;2023-03-05T16:25:21;7.90;1.00
6357;DHT22;3211;53.452;-2.264;2023-03-05T16:27:50;8.00;1.00
6357;DHT22;3211;53.452;-2.264;2023-03-05T16:30:17;7.90;1.00
6357;DHT22;3211;53.452;-2.264;2023-03-05T16:32:44;8.00;1.00
6357;DHT22;3211;53.452;-2.264;2023-03-05T16:35:11;7.90;1.00
6357;DHT22;3211;53.452;-2.264;2023-03-05T16:37:39;8.00;1.00
6357;DHT22;3211;53.452;-2.264;2023-03-05T16:40:08;8.00;1.00
6357;DHT22;3211;53.452;-2.264;2023-03-05T16:42:35;7.80;1.00
6357;DHT22;3211;53.452;-2.264;2023-03-05T16:45:05;7.70;1.00
6357;DHT22;3211;53.452;-2.264;2023-03-05T16:47:32;7.60;1.00